Terminal Aerodrome Forecast
Issued by NWS Mt. Holly, NJ

Current Version | Previous Version | Text Only | Print | Product List | Glossary On
Versions: 1 2 3 4 5 6 7 8 9 10 11 12 13 14
000
FTUS41 KPHI 191700 RRA
TAFABE
TAF
KABE 191745Z 1918/2018 08010KT P6SM SCT030
     FM192000 11006KT P6SM SCT040 SCT080
     FM200600 13003KT P6SM OVC025
     FM201000 13002KT 5SM BR OVC015
      TEMPO 2010/2014 -DZ OVC010
     FM201400 15006KT P6SM BKN020
     FM201600 18009KT P6SM SCT030=

USA.gov is the U.S. government's official web portal to all federal, state and local government web resources and services.